Time;durP1;ratioP1;P1;durP2;ratioP2;P2;SDS_P1;SDS_P2;PMS_P1;PMS_P2;Temp;Humidity;BMP_temperature;BMP_pressure;BME280_temperature;BME280_humidity;BME280_pressure;Samples;Min_cycle;Max_cycle;Signal;HPM_P1;HPM_P2
2022/04/16 00:00:56;;;;;;;40.45;27.77;;;;;;;;;;5039383;28;20140;-92
2022/04/16 00:03:24;;;;;;;44.67;29.83;;;;;;;;;;5034889;28;20136;-92
2022/04/16 00:05:55;;;;;;;42.78;29.15;;;;;;;;;;5034696;28;20080;-92
2022/04/16 00:08:23;;;;;;;44.05;27.80;;;;;;;;;;5035976;28;20053;-93
2022/04/16 00:10:50;;;;;;;44.15;28.92;;;;;;;;;;5036058;28;20515;-94
2022/04/16 00:13:18;;;;;;;45.45;30.00;;;;;;;;;;5034984;28;20053;-93
2022/04/16 00:15:46;;;;;;;45.17;29.13;;;;;;;;;;5034718;28;20413;-93
2022/04/16 00:18:14;;;;;;;44.22;29.10;;;;;;;;;;5034832;28;20537;-93
2022/04/16 00:20:44;;;;;;;53.85;32.88;;;;;;;;;;5034612;28;20080;-92
2022/04/16 00:23:12;;;;;;;59.47;34.95;;;;;;;;;;5035867;28;20053;-93
2022/04/16 00:25:41;;;;;;;56.70;34.85;;;;;;;;;;5035619;28;20053;-93
2022/04/16 00:28:09;;;;;;;61.67;38.75;;;;;;;;;;5034635;28;20429;-92
2022/04/16 00:30:37;;;;;;;65.00;37.65;;;;;;;;;;5035235;28;20042;-92
2022/04/16 00:33:06;;;;;;;55.50;33.60;;;;;;;;;;5035604;28;20053;-92
2022/04/16 00:35:33;;;;;;;55.58;34.67;;;;;;;;;;5035544;28;20455;-95
2022/04/16 00:38:00;;;;;;;51.35;32.20;;;;;;;;;;5035490;28;20096;-93
2022/04/16 00:40:27;;;;;;;55.28;34.55;;;;;;;;;;5034725;28;20105;-92
2022/04/16 00:42:55;;;;;;;49.45;33.03;;;;;;;;;;5035312;28;20408;-94
2022/04/16 00:45:22;;;;;;;54.05;33.75;;;;;;;;;;5034283;28;20053;-91
2022/04/16 00:47:49;;;;;;;51.78;34.90;;;;;;;;;;5034807;28;20053;-92
2022/04/16 00:50:16;;;;;;;54.75;36.33;;;;;;;;;;5035335;28;20045;-92
2022/04/16 00:52:44;;;;;;;51.28;34.63;;;;;;;;;;5035295;28;20420;-92
2022/04/16 00:55:12;;;;;;;53.20;35.97;;;;;;;;;;5034110;28;20046;-94
2022/04/16 00:57:40;;;;;;;53.97;36.63;;;;;;;;;;5034112;28;20085;-92
2022/04/16 01:00:08;;;;;;;52.97;36.25;;;;;;;;;;5034270;28;20048;-92
2022/04/16 01:02:36;;;;;;;51.95;35.58;;;;;;;;;;5033751;28;20092;-92
2022/04/16 01:05:04;;;;;;;47.90;31.73;;;;;;;;;;5034985;28;20049;-92
2022/04/16 01:07:32;;;;;;;45.03;31.27;;;;;;;;;;5035286;28;20088;-93
2022/04/16 01:09:59;;;;;;;40.72;27.30;;;;;;;;;;5033855;28;20128;-92
2022/04/16 01:12:26;;;;;;;38.13;26.45;;;;;;;;;;5034220;28;20080;-93
2022/04/16 01:14:57;;;;;;;34.03;24.05;;;;;;;;;;5033708;28;20056;-92
2022/04/16 01:17:24;;;;;;;33.13;20.75;;;;;;;;;;5033790;28;20053;-91
2022/04/16 01:19:51;;;;;;;33.50;21.90;;;;;;;;;;5033970;28;20055;-92
2022/04/16 01:22:20;;;;;;;33.28;21.52;;;;;;;;;;5033844;28;20059;-92
2022/04/16 01:24:48;;;;;;;32.50;20.30;;;;;;;;;;5033699;28;20080;-91
2022/04/16 01:27:17;;;;;;;29.05;19.17;;;;;;;;;;5033557;28;20505;-91
2022/04/16 01:29:47;;;;;;;36.05;21.05;;;;;;;;;;5034700;28;20596;-91
2022/04/16 01:32:14;;;;;;;33.30;20.70;;;;;;;;;;5033916;28;20116;-92
2022/04/16 01:34:42;;;;;;;35.75;22.10;;;;;;;;;;5033837;28;20087;-92
2022/04/16 01:37:09;;;;;;;40.55;23.55;;;;;;;;;;5034024;28;20527;-93
2022/04/16 01:39:37;;;;;;;44.10;26.77;;;;;;;;;;5033958;28;20053;-91
2022/04/16 01:42:04;;;;;;;43.25;26.30;;;;;;;;;;5034405;28;20053;-92
2022/04/16 01:44:32;;;;;;;49.25;28.88;;;;;;;;;;5035306;28;20080;-91
2022/04/16 01:47:00;;;;;;;50.08;27.92;;;;;;;;;;5043167;28;20117;-91
2022/04/16 01:49:27;;;;;;;46.33;27.52;;;;;;;;;;5038876;28;20056;-91
2022/04/16 01:51:57;;;;;;;50.58;27.10;;;;;;;;;;5033449;28;20660;-92
2022/04/16 01:54:24;;;;;;;45.22;25.63;;;;;;;;;;5033323;28;20048;-90
2022/04/16 01:56:51;;;;;;;46.38;25.50;;;;;;;;;;5034455;28;20077;-92
2022/04/16 01:59:19;;;;;;;43.70;25.38;;;;;;;;;;5032876;28;20050;-92
2022/04/16 02:01:47;;;;;;;40.50;22.55;;;;;;;;;;5033164;28;20050;-92
2022/04/16 02:04:15;;;;;;;43.35;22.73;;;;;;;;;;5032597;28;20053;-94
2022/04/16 02:06:42;;;;;;;37.92;22.40;;;;;;;;;;5032631;28;20079;-93
2022/04/16 02:09:09;;;;;;;42.33;22.13;;;;;;;;;;5032841;28;20077;-95
2022/04/16 02:11:36;;;;;;;39.53;22.55;;;;;;;;;;5032656;28;20578;-91
2022/04/16 02:14:04;;;;;;;37.55;21.95;;;;;;;;;;5032320;28;20128;-93
2022/04/16 02:16:31;;;;;;;39.10;21.80;;;;;;;;;;5033073;28;20046;-93
2022/04/16 02:19:00;;;;;;;35.08;20.20;;;;;;;;;;5032950;28;20512;-93
2022/04/16 02:21:30;;;;;;;33.63;20.40;;;;;;;;;;5033532;28;20056;-92
2022/04/16 02:23:58;;;;;;;37.30;23.13;;;;;;;;;;5032790;28;20561;-92
2022/04/16 02:26:26;;;;;;;42.50;23.20;;;;;;;;;;5032579;28;20084;-92
2022/04/16 02:28:53;;;;;;;39.33;22.63;;;;;;;;;;5033542;28;20536;-94
2022/04/16 02:31:23;;;;;;;39.28;24.13;;;;;;;;;;5032484;28;20059;-96
2022/04/16 02:33:51;;;;;;;41.13;25.13;;;;;;;;;;5032431;28;20084;-93
2022/04/16 02:36:19;;;;;;;38.20;24.65;;;;;;;;;;5032303;28;20077;-93
2022/04/16 02:38:47;;;;;;;37.72;25.15;;;;;;;;;;5032505;28;20080;-92
2022/04/16 02:41:14;;;;;;;44.47;26.30;;;;;;;;;;5033488;28;20490;-92
2022/04/16 02:43:41;;;;;;;41.60;26.98;;;;;;;;;;5033226;28;20473;-92
2022/04/16 02:48:55;;;;;;;34.08;25.00;;;;;;;;;;5033304;28;20046;-92
2022/04/16 02:51:24;;;;;;;33.72;23.35;;;;;;;;;;5032628;28;20141;-92
2022/04/16 02:53:51;;;;;;;34.78;23.13;;;;;;;;;;5032188;28;20049;-91
2022/04/16 02:56:18;;;;;;;33.35;23.83;;;;;;;;;;5033165;28;20073;-92
2022/04/16 02:58:45;;;;;;;32.08;21.42;;;;;;;;;;5032533;28;20103;-91
2022/04/16 03:01:12;;;;;;;33.25;21.88;;;;;;;;;;5035460;28;20042;-91
2022/04/16 03:03:40;;;;;;;31.80;21.77;;;;;;;;;;5039083;28;20061;-91
2022/04/16 03:06:07;;;;;;;33.97;22.40;;;;;;;;;;5032738;28;20077;-92
2022/04/16 03:08:34;;;;;;;29.67;21.77;;;;;;;;;;5033176;28;20136;-92
2022/04/16 03:11:01;;;;;;;29.75;21.88;;;;;;;;;;5033818;28;20132;-92
2022/04/16 03:13:29;;;;;;;27.45;19.80;;;;;;;;;;5036831;28;20107;-90
2022/04/16 03:18:42;;;;;;;24.55;18.55;;;;;;;;;;5037149;28;20045;-90
2022/04/16 03:21:11;;;;;;;23.05;16.88;;;;;;;;;;5035640;28;20041;-91
2022/04/16 03:23:38;;;;;;;21.73;15.93;;;;;;;;;;5037023;28;20143;-92
2022/04/16 03:26:06;;;;;;;27.00;18.80;;;;;;;;;;5035403;28;20562;-91
2022/04/16 03:28:33;;;;;;;25.80;17.50;;;;;;;;;;5035822;28;20060;-90
2022/04/16 03:31:00;;;;;;;25.80;19.48;;;;;;;;;;5035890;28;20116;-91
2022/04/16 03:33:28;;;;;;;29.98;20.17;;;;;;;;;;5035633;28;20144;-92
2022/04/16 03:35:55;;;;;;;31.38;19.63;;;;;;;;;;5035351;28;20155;-89
2022/04/16 03:38:22;;;;;;;27.30;18.33;;;;;;;;;;5035506;28;20041;-91
2022/04/16 03:40:49;;;;;;;27.85;18.40;;;;;;;;;;5036499;28;20076;-91
2022/04/16 03:43:19;;;;;;;27.98;18.33;;;;;;;;;;5035456;28;20413;-91
2022/04/16 03:45:47;;;;;;;26.08;17.45;;;;;;;;;;5035240;28;20115;-91
2022/04/16 03:48:15;;;;;;;28.60;17.00;;;;;;;;;;5036408;28;20456;-92
2022/04/16 03:50:42;;;;;;;24.58;17.27;;;;;;;;;;5035524;28;20053;-91
2022/04/16 03:53:09;;;;;;;24.13;16.23;;;;;;;;;;5035113;28;20056;-91
2022/04/16 04:01:08;;;;;;;23.23;16.50;;;;;;;;;;5036109;28;20096;-92
2022/04/16 04:03:36;;;;;;;23.30;17.95;;;;;;;;;;5035188;28;20107;-91
2022/04/16 04:06:05;;;;;;;22.00;17.25;;;;;;;;;;5036166;28;20081;-93
2022/04/16 04:08:33;;;;;;;23.10;17.45;;;;;;;;;;5035285;28;20052;-92
2022/04/16 04:11:01;;;;;;;24.35;17.42;;;;;;;;;;5036134;28;20096;-92
2022/04/16 04:13:28;;;;;;;25.33;17.65;;;;;;;;;;5036199;28;20136;-92
2022/04/16 04:15:56;;;;;;;20.35;16.63;;;;;;;;;;5035041;28;20053;-91
2022/04/16 04:18:24;;;;;;;24.90;17.05;;;;;;;;;;5035089;28;20056;-92
2022/04/16 04:20:51;;;;;;;19.90;15.32;;;;;;;;;;5035087;28;20111;-90
2022/04/16 04:23:19;;;;;;;20.00;14.52;;;;;;;;;;5034975;28;20057;-91
2022/04/16 04:25:46;;;;;;;18.33;14.05;;;;;;;;;;5034784;28;20058;-91
2022/04/16 04:28:13;;;;;;;25.88;14.98;;;;;;;;;;5034732;28;20077;-94
2022/04/16 04:30:40;;;;;;;18.45;13.65;;;;;;;;;;5035008;28;20092;-91
2022/04/16 04:33:08;;;;;;;22.52;14.95;;;;;;;;;;5034577;28;20128;-91
2022/04/16 04:35:35;;;;;;;22.05;16.30;;;;;;;;;;5035530;28;20050;-91
2022/04/16 04:38:02;;;;;;;22.02;16.65;;;;;;;;;;5035286;28;20136;-90
2022/04/16 04:40:29;;;;;;;21.02;16.15;;;;;;;;;;5034506;28;20145;-91
2022/04/16 04:42:56;;;;;;;24.50;17.73;;;;;;;;;;5034736;28;20482;-90
2022/04/16 04:45:23;;;;;;;24.23;17.17;;;;;;;;;;5035019;28;20132;-91
2022/04/16 04:47:51;;;;;;;27.00;18.38;;;;;;;;;;5035415;28;20053;-91
2022/04/16 04:50:18;;;;;;;27.13;17.08;;;;;;;;;;5035655;28;20123;-90
2022/04/16 04:52:46;;;;;;;23.02;17.85;;;;;;;;;;5035174;28;20076;-91
2022/04/16 04:55:14;;;;;;;25.77;19.73;;;;;;;;;;5034017;28;20096;-91
2022/04/16 04:57:42;;;;;;;26.95;19.77;;;;;;;;;;5034419;28;20052;-88
2022/04/16 05:00:11;;;;;;;22.13;17.75;;;;;;;;;;5035093;28;20053;-91
2022/04/16 05:02:45;;;;;;;20.77;16.58;;;;;;;;;;5035099;28;20054;-89
2022/04/16 05:05:13;;;;;;;20.58;16.55;;;;;;;;;;5034830;28;20049;-89
2022/04/16 05:07:40;;;;;;;22.08;15.73;;;;;;;;;;5035062;28;20160;-89
2022/04/16 05:10:08;;;;;;;17.73;14.70;;;;;;;;;;5034092;28;20410;-91
2022/04/16 05:12:35;;;;;;;18.58;14.95;;;;;;;;;;5035217;28;20139;-91
2022/04/16 05:15:03;;;;;;;17.70;14.30;;;;;;;;;;5034174;28;20141;-92
2022/04/16 05:17:31;;;;;;;16.35;13.88;;;;;;;;;;5034233;28;20057;-92
2022/04/16 05:19:58;;;;;;;22.63;14.10;;;;;;;;;;5033726;28;20057;-91
2022/04/16 05:22:25;;;;;;;17.02;11.15;;;;;;;;;;5033832;28;20053;-92
2022/04/16 05:24:52;;;;;;;10.65;7.22;;;;;;;;;;5034807;28;20084;-91
2022/04/16 05:27:19;;;;;;;9.25;6.07;;;;;;;;;;5033791;28;20064;-91
2022/04/16 05:30:04;;;;;;;6.15;4.55;;;;;;;;;;5036085;28;20469;-89
2022/04/16 05:32:37;;;;;;;5.45;3.75;;;;;;;;;;5046060;28;20109;-88
2022/04/16 05:35:06;;;;;;;4.65;4.03;;;;;;;;;;5038995;28;20152;-91
2022/04/16 05:37:33;;;;;;;5.88;3.70;;;;;;;;;;5033644;28;20136;-91
2022/04/16 05:40:00;;;;;;;6.57;3.53;;;;;;;;;;5033458;28;20055;-90
2022/04/16 05:42:28;;;;;;;4.97;3.10;;;;;;;;;;5033688;28;20080;-92
2022/04/16 05:45:02;;;;;;;4.03;3.00;;;;;;;;;;5033349;28;20145;-91
2022/04/16 05:47:29;;;;;;;9.27;3.45;;;;;;;;;;5033293;28;20508;-90
2022/04/16 05:49:56;;;;;;;9.52;3.25;;;;;;;;;;5032930;28;20052;-91
2022/04/16 05:52:23;;;;;;;4.95;2.83;;;;;;;;;;5034238;28;20449;-92
2022/04/16 05:54:52;;;;;;;4.28;2.42;;;;;;;;;;5034431;28;20120;-92
2022/04/16 05:57:21;;;;;;;2.63;2.42;;;;;;;;;;5033026;28;20053;-91
2022/04/16 05:59:49;;;;;;;2.40;2.17;;;;;;;;;;5034130;28;20498;-91
2022/04/16 06:02:16;;;;;;;3.78;2.50;;;;;;;;;;5033636;28;20132;-91
2022/04/16 06:04:43;;;;;;;12.27;2.63;;;;;;;;;;5033790;28;20055;-92
2022/04/16 06:07:11;;;;;;;2.97;2.60;;;;;;;;;;5033647;28;20135;-89
2022/04/16 06:09:38;;;;;;;2.88;2.08;;;;;;;;;;5032692;28;20470;-90
2022/04/16 06:12:06;;;;;;;2.65;2.30;;;;;;;;;;5033529;28;20132;-90
2022/04/16 06:14:33;;;;;;;3.88;2.08;;;;;;;;;;5032445;28;20137;-90
2022/04/16 06:17:00;;;;;;;3.53;2.72;;;;;;;;;;5033414;28;20064;-90
2022/04/16 06:19:27;;;;;;;8.07;2.83;;;;;;;;;;5033790;28;20045;-89
2022/04/16 06:21:54;;;;;;;2.25;1.98;;;;;;;;;;5032355;28;20059;-92
2022/04/16 06:24:21;;;;;;;4.45;2.50;;;;;;;;;;5033550;28;20145;-91
2022/04/16 06:26:49;;;;;;;2.70;2.05;;;;;;;;;;5033896;28;20071;-90
2022/04/16 06:29:16;;;;;;;3.35;2.75;;;;;;;;;;5032844;28;20072;-91
2022/04/16 06:31:43;;;;;;;4.97;3.15;;;;;;;;;;5032790;28;20056;-91
2022/04/16 06:34:10;;;;;;;19.77;13.30;;;;;;;;;;5033735;28;20049;-91
2022/04/16 06:36:38;;;;;;;44.03;25.30;;;;;;;;;;5033751;28;20463;-91
2022/04/16 06:39:05;;;;;;;10.07;6.70;;;;;;;;;;5040866;28;20049;-90
2022/04/16 06:41:32;;;;;;;4.43;3.30;;;;;;;;;;5051066;28;20442;-91
2022/04/16 06:44:00;;;;;;;5.10;3.55;;;;;;;;;;5050388;28;20056;-91
2022/04/16 06:46:27;;;;;;;6.82;6.15;;;;;;;;;;5051908;28;20055;-91
2022/04/16 06:48:54;;;;;;;4.63;3.00;;;;;;;;;;5052463;28;20124;-90
2022/04/16 06:51:21;;;;;;;4.93;3.22;;;;;;;;;;5052937;28;20144;-92
2022/04/16 06:53:48;;;;;;;5.00;3.45;;;;;;;;;;5052341;28;20056;-91
2022/04/16 06:56:15;;;;;;;10.05;3.80;;;;;;;;;;5052981;28;20144;-91
2022/04/16 06:58:43;;;;;;;3.05;2.70;;;;;;;;;;5051783;28;20079;-90
2022/04/16 07:01:10;;;;;;;3.97;3.60;;;;;;;;;;5051927;28;20136;-90
2022/04/16 07:03:37;;;;;;;5.88;3.50;;;;;;;;;;5052819;28;20060;-92
2022/04/16 07:06:04;;;;;;;3.60;3.30;;;;;;;;;;5051564;28;20064;-90
2022/04/16 07:08:31;;;;;;;3.00;2.72;;;;;;;;;;5053140;28;20107;-91
2022/04/16 07:10:58;;;;;;;4.32;3.10;;;;;;;;;;5051691;28;20049;-91
2022/04/16 07:13:26;;;;;;;3.50;3.20;;;;;;;;;;5052052;28;20073;-91
2022/04/16 07:15:53;;;;;;;6.30;3.00;;;;;;;;;;5051866;28;20041;-91
2022/04/16 07:18:20;;;;;;;3.20;2.95;;;;;;;;;;5051853;28;20049;-90
2022/04/16 07:20:47;;;;;;;4.90;3.30;;;;;;;;;;5052933;28;20060;-90
2022/04/16 07:23:15;;;;;;;4.72;3.28;;;;;;;;;;5052083;28;20475;-91
2022/04/16 07:25:42;;;;;;;4.20;3.40;;;;;;;;;;5052566;28;20053;-91
2022/04/16 07:28:11;;;;;;;3.33;3.05;;;;;;;;;;5052735;28;20145;-90
2022/04/16 07:30:38;;;;;;;3.83;3.00;;;;;;;;;;5051778;28;20084;-91
2022/04/16 07:33:05;;;;;;;3.13;2.75;;;;;;;;;;5051617;28;20091;-92
2022/04/16 07:35:32;;;;;;;3.30;2.97;;;;;;;;;;5051731;28;20136;-90
2022/04/16 07:38:00;;;;;;;3.85;3.17;;;;;;;;;;5052038;28;20541;-92
2022/04/16 07:40:28;;;;;;;4.78;2.67;;;;;;;;;;5052348;28;20077;-91
2022/04/16 07:42:56;;;;;;;4.18;2.55;;;;;;;;;;5051265;28;20049;-90
2022/04/16 07:45:23;;;;;;;4.25;2.40;;;;;;;;;;5052655;28;20053;-91
2022/04/16 07:47:50;;;;;;;3.22;2.13;;;;;;;;;;5051670;28;20112;-91
2022/04/16 07:50:18;;;;;;;4.35;2.35;;;;;;;;;;5052080;28;20049;-90
2022/04/16 07:52:46;;;;;;;3.63;2.58;;;;;;;;;;5052785;28;20053;-91
2022/04/16 07:55:13;;;;;;;2.25;1.98;;;;;;;;;;5052537;28;20055;-90
2022/04/16 07:57:41;;;;;;;3.83;2.47;;;;;;;;;;5053720;28;20127;-88
2022/04/16 08:00:10;;;;;;;2.08;1.90;;;;;;;;;;5055396;28;20132;-91
2022/04/16 08:02:37;;;;;;;5.95;2.13;;;;;;;;;;5055614;28;20136;-91
2022/04/16 08:05:04;;;;;;;3.55;1.73;;;;;;;;;;5056564;28;20132;-91
2022/04/16 08:07:32;;;;;;;5.38;2.13;;;;;;;;;;5055098;28;20090;-91
2022/04/16 08:09:59;;;;;;;13.13;2.45;;;;;;;;;;5056141;28;20087;-90
2022/04/16 08:12:26;;;;;;;2.30;2.00;;;;;;;;;;5055222;28;20049;-93
2022/04/16 08:14:54;;;;;;;4.40;2.10;;;;;;;;;;5055190;28;20048;-91
2022/04/16 08:17:21;;;;;;;5.35;1.65;;;;;;;;;;5054300;28;20132;-91
2022/04/16 08:19:48;;;;;;;2.28;1.83;;;;;;;;;;5055557;28;20132;-91
2022/04/16 08:22:21;;;;;;;31.80;12.52;;;;;;;;;;5054744;28;20167;-91
2022/04/16 08:25:43;;;;;;;2.13;1.93;;;;;;;;;;5055968;28;20555;-91
2022/04/16 08:27:42;;;;;;;14.18;7.60;;;;;;;;;;5055744;28;20053;-91
2022/04/16 08:30:10;;;;;;;191.57;72.55;;;;;;;;;;5054343;28;20066;-91
2022/04/16 08:32:38;;;;;;;190.23;65.03;;;;;;;;;;5054766;28;20083;-90
2022/04/16 08:35:05;;;;;;;16.67;7.80;;;;;;;;;;5054981;28;20072;-90
2022/04/16 08:37:32;;;;;;;45.47;20.33;;;;;;;;;;5054997;28;20073;-89
2022/04/16 08:40:00;;;;;;;49.95;21.92;;;;;;;;;;5055783;28;20135;-90
2022/04/16 08:42:27;;;;;;;45.42;18.08;;;;;;;;;;5055963;28;20040;-89
2022/04/16 08:44:54;;;;;;;77.10;35.88;;;;;;;;;;5054532;28;20055;-89
2022/04/16 08:47:22;;;;;;;25.35;13.48;;;;;;;;;;5054399;28;20049;-90
2022/04/16 08:49:49;;;;;;;14.82;9.32;;;;;;;;;;5054904;28;20124;-89
2022/04/16 08:52:17;;;;;;;5.22;4.78;;;;;;;;;;5055423;28;20076;-90
2022/04/16 08:54:44;;;;;;;5.90;3.47;;;;;;;;;;5056444;28;20128;-90
2022/04/16 08:57:11;;;;;;;3.83;2.00;;;;;;;;;;5055595;28;20144;-89
2022/04/16 08:59:39;;;;;;;3.63;3.28;;;;;;;;;;5054269;28;20500;-90
2022/04/16 09:02:06;;;;;;;6.80;3.30;;;;;;;;;;5055278;28;20135;-89
2022/04/16 09:04:33;;;;;;;2.10;2.00;;;;;;;;;;5054458;28;20052;-92
2022/04/16 09:07:01;;;;;;;2.53;2.00;;;;;;;;;;5054240;28;20052;-92
2022/04/16 09:09:29;;;;;;;1.83;1.70;;;;;;;;;;5053939;28;20123;-91
2022/04/16 09:11:56;;;;;;;2.72;2.25;;;;;;;;;;5053819;28;20092;-89
2022/04/16 09:14:33;;;;;;;2.05;1.95;;;;;;;;;;5055017;28;20080;-90
2022/04/16 09:17:01;;;;;;;3.05;2.05;;;;;;;;;;5055361;28;20075;-90
2022/04/16 09:19:31;;;;;;;2.15;2.05;;;;;;;;;;5055006;28;20085;-91
2022/04/16 09:21:58;;;;;;;2.97;1.80;;;;;;;;;;5053837;28;20128;-91
2022/04/16 09:24:25;;;;;;;2.30;1.83;;;;;;;;;;5054472;28;20402;-91
2022/04/16 09:26:53;;;;;;;2.30;2.10;;;;;;;;;;5053604;28;20052;-92
2022/04/16 09:29:20;;;;;;;2.58;1.95;;;;;;;;;;5053876;28;20051;-91
2022/04/16 09:31:49;;;;;;;2.47;1.60;;;;;;;;;;5053750;28;20446;-89
2022/04/16 09:34:18;;;;;;;2.17;1.60;;;;;;;;;;5053896;28;20067;-92
2022/04/16 09:36:46;;;;;;;1.80;1.70;;;;;;;;;;5053421;28;20053;-93
2022/04/16 09:39:13;;;;;;;2.60;1.70;;;;;;;;;;5055749;28;20128;-93
2022/04/16 09:41:41;;;;;;;1.98;1.77;;;;;;;;;;5058643;28;20049;-92
2022/04/16 09:44:19;;;;;;;1.92;1.70;;;;;;;;;;5055138;28;20051;-93
2022/04/16 09:46:52;;;;;;;4.18;1.65;;;;;;;;;;5055099;28;20049;-94
2022/04/16 09:49:19;;;;;;;1.90;1.70;;;;;;;;;;5053434;28;20049;-92
2022/04/16 09:51:47;;;;;;;1.75;1.40;;;;;;;;;;5054809;28;20116;-94
2022/04/16 09:54:15;;;;;;;2.92;1.40;;;;;;;;;;5054029;28;20456;-93
2022/04/16 09:56:47;;;;;;;6.57;2.30;;;;;;;;;;5053823;28;20067;-93
2022/04/16 09:59:15;;;;;;;2.30;1.42;;;;;;;;;;5053517;28;20057;-93
2022/04/16 10:01:47;;;;;;;1.40;1.30;;;;;;;;;;5053637;28;20049;-92
2022/04/16 10:04:18;;;;;;;1.85;1.60;;;;;;;;;;5055298;28;20057;-91
2022/04/16 10:06:46;;;;;;;2.95;1.70;;;;;;;;;;5055550;28;20049;-91
2022/04/16 10:09:22;;;;;;;3.15;1.58;;;;;;;;;;5053833;28;20547;-93
2022/04/16 10:14:45;;;;;;;2.53;1.52;;;;;;;;;;5054456;28;20053;-90
2022/04/16 10:17:15;;;;;;;1.60;1.50;;;;;;;;;;5053513;28;20048;-88
2022/04/16 10:19:46;;;;;;;2.20;1.90;;;;;;;;;;5053000;28;20420;-91
2022/04/16 10:22:24;;;;;;;1.65;1.52;;;;;;;;;;5053166;28;20091;-93
2022/04/16 10:24:57;;;;;;;3.83;2.03;;;;;;;;;;5054727;28;20394;-91
2022/04/16 10:27:31;;;;;;;2.15;1.90;;;;;;;;;;5054865;28;20091;-94
2022/04/16 10:30:00;;;;;;;2.20;2.00;;;;;;;;;;5056591;28;20474;-93
2022/04/16 10:32:43;;;;;;;2.00;1.90;;;;;;;;;;5055791;28;20459;-92
2022/04/16 10:35:14;;;;;;;2.67;2.17;;;;;;;;;;5062314;28;20053;-93
2022/04/16 10:37:42;;;;;;;2.97;1.63;;;;;;;;;;5053293;28;20095;-93
2022/04/16 10:40:16;;;;;;;1.80;1.50;;;;;;;;;;5053097;28;20072;-88
2022/04/16 10:42:47;;;;;;;2.45;1.90;;;;;;;;;;5053132;28;20056;-91
2022/04/16 10:45:19;;;;;;;4.10;1.60;;;;;;;;;;5052899;28;20048;-93
2022/04/16 10:47:49;;;;;;;2.05;1.95;;;;;;;;;;5053421;28;20053;-94
2022/04/16 10:50:20;;;;;;;2.33;2.00;;;;;;;;;;5053082;28;20052;-94
2022/04/16 10:52:54;;;;;;;1.70;1.60;;;;;;;;;;5054154;28;20076;-90
2022/04/16 10:55:25;;;;;;;2.20;1.85;;;;;;;;;;5057501;28;20071;-94
2022/04/16 10:57:57;;;;;;;2.58;2.00;;;;;;;;;;5054326;28;20136;-92
2022/04/16 11:00:34;;;;;;;2.20;1.55;;;;;;;;;;5057069;28;20088;-93
2022/04/16 11:03:08;;;;;;;1.75;1.65;;;;;;;;;;5053014;28;20053;-88
2022/04/16 11:05:36;;;;;;;4.15;2.00;;;;;;;;;;5052767;28;20055;-92
2022/04/16 11:08:05;;;;;;;1.88;1.60;;;;;;;;;;5052848;28;20149;-93
2022/04/16 11:10:32;;;;;;;2.03;1.92;;;;;;;;;;5052818;28;20136;-89
2022/04/16 11:13:01;;;;;;;1.70;1.60;;;;;;;;;;5054057;28;20049;-92
2022/04/16 11:15:29;;;;;;;3.25;2.10;;;;;;;;;;5054617;28;20045;-93
2022/04/16 11:18:00;;;;;;;2.33;1.83;;;;;;;;;;5054682;28;20130;-92
2022/04/16 11:20:28;;;;;;;2.03;1.83;;;;;;;;;;5053831;28;20413;-91
2022/04/16 11:22:55;;;;;;;1.67;1.58;;;;;;;;;;5052741;28;20060;-88
2022/04/16 11:25:24;;;;;;;1.70;1.60;;;;;;;;;;5052379;28;20076;-92
2022/04/16 11:36:13;;;;;;;2.03;1.92;;;;;;;;;;5057250;28;20040;-90
2022/04/16 11:38:41;;;;;;;2.58;1.58;;;;;;;;;;5057584;28;20064;-93
2022/04/16 11:41:10;;;;;;;3.17;1.85;;;;;;;;;;5056694;28;20052;-91
2022/04/16 11:43:45;;;;;;;7.95;1.80;;;;;;;;;;5057406;28;20051;-92
2022/04/16 11:46:14;;;;;;;2.75;1.98;;;;;;;;;;5058998;28;20055;-93
2022/04/16 11:48:46;;;;;;;2.97;2.00;;;;;;;;;;5060761;28;20053;-92
2022/04/16 11:51:14;;;;;;;2.22;2.08;;;;;;;;;;5057043;28;20106;-92
2022/04/16 11:53:44;;;;;;;3.97;1.85;;;;;;;;;;5056566;28;20048;-90
2022/04/16 11:56:12;;;;;;;3.45;2.05;;;;;;;;;;5056357;28;20095;-93
2022/04/16 11:58:39;;;;;;;7.90;1.70;;;;;;;;;;5055981;28;20062;-93
2022/04/16 12:01:08;;;;;;;2.20;1.80;;;;;;;;;;5056443;28;20135;-90
2022/04/16 12:03:39;;;;;;;6.28;2.08;;;;;;;;;;5056105;28;20060;-93
2022/04/16 12:06:11;;;;;;;4.88;2.08;;;;;;;;;;5055940;28;20071;-91
2022/04/16 12:08:40;;;;;;;1.90;1.60;;;;;;;;;;5058157;28;20493;-89
2022/04/16 12:11:08;;;;;;;1.80;1.70;;;;;;;;;;5058414;28;20080;-92
2022/04/16 12:13:36;;;;;;;2.33;1.80;;;;;;;;;;5040110;28;20080;-88
2022/04/16 12:16:05;;;;;;;6.10;1.70;;;;;;;;;;5058227;28;20493;-90
2022/04/16 12:18:37;;;;;;;2.15;1.77;;;;;;;;;;5056129;28;20045;-93
2022/04/16 12:21:08;;;;;;;1.80;1.50;;;;;;;;;;5055653;28;20048;-90
2022/04/16 12:23:38;;;;;;;1.98;1.25;;;;;;;;;;5055195;28;20416;-88
2022/04/16 12:26:05;;;;;;;2.45;1.40;;;;;;;;;;5056196;28;20136;-86
2022/04/16 12:28:33;;;;;;;3.25;1.70;;;;;;;;;;5055195;28;20140;-88
2022/04/16 12:31:00;;;;;;;2.22;1.75;;;;;;;;;;5055129;28;20136;-89
2022/04/16 12:33:28;;;;;;;3.03;2.00;;;;;;;;;;5055465;28;20052;-92
2022/04/16 12:35:55;;;;;;;2.45;1.98;;;;;;;;;;5054811;28;20561;-91
2022/04/16 12:38:24;;;;;;;2.25;2.05;;;;;;;;;;5055134;28;20485;-87
2022/04/16 12:40:52;;;;;;;3.00;2.13;;;;;;;;;;5055015;28;20084;-90
2022/04/16 12:43:19;;;;;;;2.80;2.20;;;;;;;;;;5054375;28;20490;-90
2022/04/16 12:45:46;;;;;;;2.72;2.53;;;;;;;;;;5055853;28;20056;-93
2022/04/16 12:48:15;;;;;;;2.75;2.40;;;;;;;;;;5055284;28;20500;-91
2022/04/16 12:50:42;;;;;;;2.50;2.30;;;;;;;;;;5054309;28;20049;-90
2022/04/16 12:53:10;;;;;;;2.30;2.15;;;;;;;;;;5056401;28;20457;-91
2022/04/16 12:55:37;;;;;;;3.05;2.33;;;;;;;;;;5055139;28;20140;-91
2022/04/16 12:58:05;;;;;;;3.65;1.90;;;;;;;;;;5056793;28;20135;-91
2022/04/16 13:00:34;;;;;;;2.17;2.03;;;;;;;;;;5058397;28;20077;-90
2022/04/16 13:03:01;;;;;;;1.80;1.70;;;;;;;;;;5066585;28;20084;-89
2022/04/16 13:05:29;;;;;;;2.38;2.28;;;;;;;;;;5056733;28;20076;-88
2022/04/16 13:07:59;;;;;;;1.98;1.88;;;;;;;;;;5055433;28;20454;-93
2022/04/16 13:10:26;;;;;;;7.15;2.20;;;;;;;;;;5054398;28;20045;-89
2022/04/16 13:12:54;;;;;;;4.60;2.25;;;;;;;;;;5054336;28;20087;-88
2022/04/16 13:15:21;;;;;;;2.00;1.90;;;;;;;;;;5055301;28;20558;-93
2022/04/16 13:17:48;;;;;;;2.20;2.00;;;;;;;;;;5055207;28;20056;-91
2022/04/16 13:20:16;;;;;;;2.13;2.03;;;;;;;;;;5054388;28;20049;-92
2022/04/16 13:22:43;;;;;;;2.22;1.92;;;;;;;;;;5054569;28;20053;-92
2022/04/16 13:25:11;;;;;;;1.90;1.80;;;;;;;;;;5054238;28;20045;-92
2022/04/16 13:27:38;;;;;;;3.03;2.15;;;;;;;;;;5055098;28;20077;-92
2022/04/16 13:30:05;;;;;;;1.70;1.60;;;;;;;;;;5054536;28;20288;-94
2022/04/16 13:32:33;;;;;;;2.10;1.40;;;;;;;;;;5054713;28;20616;-91
2022/04/16 13:35:00;;;;;;;2.67;1.50;;;;;;;;;;5055342;28;20056;-91
2022/04/16 13:37:27;;;;;;;2.08;1.15;;;;;;;;;;5054496;28;20501;-91
2022/04/16 13:42:40;;;;;;;4.55;1.20;;;;;;;;;;5055075;28;20534;-92
2022/04/16 13:45:07;;;;;;;1.73;1.10;;;;;;;;;;5053550;28;20139;-88
2022/04/16 13:47:36;;;;;;;1.15;1.08;;;;;;;;;;5053631;28;20080;-92
2022/04/16 13:50:04;;;;;;;2.35;1.25;;;;;;;;;;5054757;28;20059;-90
2022/04/16 13:52:31;;;;;;;3.65;1.42;;;;;;;;;;5053672;28;20133;-90
2022/04/16 13:54:58;;;;;;;1.40;1.23;;;;;;;;;;5052574;28;20143;-89
2022/04/16 13:57:26;;;;;;;1.40;1.10;;;;;;;;;;5053126;28;20045;-89
2022/04/16 13:59:53;;;;;;;1.10;1.10;;;;;;;;;;5053540;28;20128;-90
2022/04/16 14:02:20;;;;;;;1.73;1.58;;;;;;;;;;5053247;28;20137;-89
2022/04/16 14:07:33;;;;;;;2.00;1.20;;;;;;;;;;5055249;28;20493;-89
2022/04/16 14:10:01;;;;;;;4.13;1.70;;;;;;;;;;5053398;28;20147;-93
2022/04/16 14:12:28;;;;;;;6.95;1.85;;;;;;;;;;5054541;28;20091;-93
2022/04/16 14:14:55;;;;;;;1.40;1.30;;;;;;;;;;5053336;28;20143;-87
2022/04/16 14:17:23;;;;;;;2.22;1.40;;;;;;;;;;5055415;28;20405;-92
2022/04/16 14:19:50;;;;;;;1.75;1.65;;;;;;;;;;5055160;28;20560;-91
2022/04/16 14:22:17;;;;;;;2.60;1.63;;;;;;;;;;5052825;28;20126;-93
2022/04/16 14:24:44;;;;;;;2.97;1.70;;;;;;;;;;5053861;28;20044;-90
2022/04/16 14:27:13;;;;;;;2.15;1.33;;;;;;;;;;5052876;28;20387;-91
2022/04/16 14:29:40;;;;;;;2.40;1.33;;;;;;;;;;5053807;28;20091;-88
2022/04/16 14:32:08;;;;;;;2.10;0.98;;;;;;;;;;5052635;28;20083;-90
2022/04/16 14:34:35;;;;;;;1.92;1.40;;;;;;;;;;5052725;28;20127;-94
2022/04/16 14:37:02;;;;;;;1.23;1.00;;;;;;;;;;5052920;28;20152;-92
2022/04/16 14:39:30;;;;;;;0.98;0.98;;;;;;;;;;5053821;28;20083;-92
2022/04/16 14:41:58;;;;;;;1.30;0.70;;;;;;;;;;5053448;28;20092;-91
2022/04/16 14:44:25;;;;;;;1.55;1.20;;;;;;;;;;5052972;28;20405;-91
2022/04/16 14:46:52;;;;;;;0.95;0.82;;;;;;;;;;5052473;28;20087;-92
2022/04/16 14:49:19;;;;;;;1.33;0.80;;;;;;;;;;5051764;28;20076;-95
2022/04/16 14:51:55;;;;;;;1.73;1.10;;;;;;;;;;5052331;28;20044;-91
2022/04/16 14:54:22;;;;;;;1.35;1.20;;;;;;;;;;5054433;28;20060;-91
2022/04/16 14:56:49;;;;;;;1.00;1.00;;;;;;;;;;5053349;28;20049;-91
2022/04/16 14:59:16;;;;;;;1.77;1.10;;;;;;;;;;5053750;28;20049;-93
2022/04/16 15:01:43;;;;;;;1.10;0.90;;;;;;;;;;5052633;28;20064;-90
2022/04/16 15:04:11;;;;;;;1.88;1.20;;;;;;;;;;5052929;28;20287;-90
2022/04/16 15:06:39;;;;;;;2.13;0.85;;;;;;;;;;5053825;28;20452;-90